Time;durP1;ratioP1;P1;durP2;ratioP2;P2;SDS_P1;SDS_P2;PMS_P1;PMS_P2;Temp;Humidity;BMP_temperature;BMP_pressure;BME280_temperature;BME280_humidity;BME280_pressure;Samples;Min_cycle;Max_cycle;Signal;HPM_P1;HPM_P2
2024/02/24 00:02:14;;;;;;;5.50;4.40;;;;;;;;;;107066;1252;60511;-79
2024/02/24 00:04:41;;;;;;;9.40;5.00;;;;;;;;;;107104;1251;60456;-79
2024/02/24 00:07:07;;;;;;;5.50;4.50;;;;;;;;;;107827;1251;60485;-83
2024/02/24 00:09:34;;;;;;;6.90;3.80;;;;;;;;;;109538;1251;58068;-80
2024/02/24 00:12:00;;;;;;;16.80;9.20;;;;;;;;;;109501;1251;58522;-78
2024/02/24 00:14:27;;;;;;;9.10;5.20;;;;;;;;;;109128;1256;57983;-80
2024/02/24 00:16:53;;;;;;;9.30;4.80;;;;;;;;;;107120;1260;60338;-79
2024/02/24 00:19:19;;;;;;;12.20;7.80;;;;;;;;;;107177;1255;60481;-81
2024/02/24 00:21:46;;;;;;;13.20;6.00;;;;;;;;;;107162;1255;60473;-83
2024/02/24 00:24:12;;;;;;;8.10;5.80;;;;;;;;;;107155;1257;60380;-79
2024/02/24 00:26:39;;;;;;;13.70;8.50;;;;;;;;;;107147;1251;60411;-83
2024/02/24 00:29:06;;;;;;;12.20;6.40;;;;;;;;;;107116;1257;61079;-80
2024/02/24 00:31:32;;;;;;;20.60;9.50;;;;;;;;;;106520;1256;60443;-79
2024/02/24 00:33:58;;;;;;;10.30;6.20;;;;;;;;;;109459;1251;58350;-83
2024/02/24 00:36:25;;;;;;;10.00;5.40;;;;;;;;;;109500;1254;58488;-80
2024/02/24 00:38:51;;;;;;;7.80;4.80;;;;;;;;;;109451;1253;58105;-80
2024/02/24 00:41:18;;;;;;;11.90;6.90;;;;;;;;;;109388;1254;58346;-81
2024/02/24 00:43:44;;;;;;;11.60;7.20;;;;;;;;;;109508;1253;58131;-80
2024/02/24 00:46:11;;;;;;;16.10;8.00;;;;;;;;;;109509;1254;58387;-80
2024/02/24 00:48:37;;;;;;;11.00;5.70;;;;;;;;;;109458;1252;58362;-81
2024/02/24 00:51:04;;;;;;;8.40;5.00;;;;;;;;;;107379;1254;60537;-79
2024/02/24 00:53:30;;;;;;;8.70;5.80;;;;;;;;;;107018;1251;59201;-80
2024/02/24 00:55:57;;;;;;;9.50;4.90;;;;;;;;;;107056;1254;60476;-82
2024/02/24 00:58:23;;;;;;;7.60;4.50;;;;;;;;;;107052;1254;60418;-80
2024/02/24 01:00:49;;;;;;;9.70;5.20;;;;;;;;;;106851;1254;60597;-83
2024/02/24 01:03:16;;;;;;;7.00;4.60;;;;;;;;;;107082;1252;60566;-79
2024/02/24 01:05:44;;;;;;;8.80;6.40;;;;;;;;;;107099;1254;60467;-79
2024/02/24 01:08:11;;;;;;;7.20;4.50;;;;;;;;;;107033;1254;60453;-80
2024/02/24 01:10:37;;;;;;;6.90;4.80;;;;;;;;;;107010;1254;60424;-83
2024/02/24 01:13:03;;;;;;;13.00;7.50;;;;;;;;;;107046;1256;59106;-83
2024/02/24 01:15:31;;;;;;;13.50;7.10;;;;;;;;;;107118;1254;60415;-80
2024/02/24 01:17:57;;;;;;;10.90;7.00;;;;;;;;;;106913;1254;59186;-83
2024/02/24 01:20:23;;;;;;;18.40;12.10;;;;;;;;;;107088;1256;60482;-83
2024/02/24 01:22:53;;;;;;;15.70;9.90;;;;;;;;;;106951;1253;60588;-83
2024/02/24 01:25:20;;;;;;;19.80;9.10;;;;;;;;;;107029;1256;60470;-79
2024/02/24 01:27:46;;;;;;;14.40;9.40;;;;;;;;;;106881;1253;60330;-83
2024/02/24 01:30:13;;;;;;;14.60;8.40;;;;;;;;;;107012;1256;58352;-82
2024/02/24 01:32:39;;;;;;;11.90;7.20;;;;;;;;;;107172;1256;60485;-79
2024/02/24 01:35:07;;;;;;;10.10;6.90;;;;;;;;;;106923;1254;59137;-83
2024/02/24 01:37:34;;;;;;;56.10;22.20;;;;;;;;;;107092;1257;60453;-83
2024/02/24 01:40:01;;;;;;;28.40;14.60;;;;;;;;;;106987;1257;60441;-82
2024/02/24 01:42:27;;;;;;;33.00;20.50;;;;;;;;;;106955;1253;61728;-83
2024/02/24 01:44:54;;;;;;;19.20;12.60;;;;;;;;;;107057;1252;60511;-83
2024/02/24 01:47:22;;;;;;;13.10;9.40;;;;;;;;;;107084;1255;60524;-79
2024/02/24 01:49:49;;;;;;;13.90;8.10;;;;;;;;;;106934;1252;60484;-83
2024/02/24 01:52:16;;;;;;;31.90;20.10;;;;;;;;;;106927;1257;61217;-80
2024/02/24 01:54:43;;;;;;;25.80;17.10;;;;;;;;;;106979;1251;61007;-83
2024/02/24 01:57:09;;;;;;;10.70;6.70;;;;;;;;;;107122;1251;60540;-80
2024/02/24 01:59:36;;;;;;;11.10;7.40;;;;;;;;;;107090;1251;60443;-79
2024/02/24 02:02:02;;;;;;;11.00;7.50;;;;;;;;;;106897;1251;60317;-82
2024/02/24 02:04:29;;;;;;;13.30;7.60;;;;;;;;;;107070;1251;59145;-83
2024/02/24 02:06:55;;;;;;;11.80;6.30;;;;;;;;;;107096;1251;60514;-80
2024/02/24 02:09:22;;;;;;;13.20;9.30;;;;;;;;;;107110;1251;60415;-79
2024/02/24 02:11:49;;;;;;;13.20;8.20;;;;;;;;;;107161;1251;60423;-83
2024/02/24 02:14:15;;;;;;;10.30;6.80;;;;;;;;;;107117;1251;60799;-83
2024/02/24 02:16:41;;;;;;;9.40;5.20;;;;;;;;;;107231;1256;60299;-84
2024/02/24 02:19:08;;;;;;;4.70;3.20;;;;;;;;;;107136;1251;60318;-79
2024/02/24 02:21:35;;;;;;;12.70;7.50;;;;;;;;;;107154;1251;60335;-82
2024/02/24 02:24:02;;;;;;;10.60;6.30;;;;;;;;;;107172;1251;60399;-79
2024/02/24 02:26:29;;;;;;;8.10;5.70;;;;;;;;;;106859;1251;59872;-80
2024/02/24 02:28:55;;;;;;;6.40;4.20;;;;;;;;;;107163;1255;60459;-79
2024/02/24 02:31:21;;;;;;;5.00;3.50;;;;;;;;;;106971;1251;60536;-79
2024/02/24 02:33:48;;;;;;;8.60;3.90;;;;;;;;;;106534;1251;60418;-83
2024/02/24 02:36:14;;;;;;;5.90;4.40;;;;;;;;;;106998;1257;60510;-78
2024/02/24 02:38:41;;;;;;;6.60;4.10;;;;;;;;;;106504;1254;60503;-79
2024/02/24 02:41:07;;;;;;;6.60;4.20;;;;;;;;;;106524;1256;60570;-79
2024/02/24 02:43:33;;;;;;;4.80;3.30;;;;;;;;;;107097;1251;60417;-83
2024/02/24 02:46:00;;;;;;;11.30;5.30;;;;;;;;;;107100;1251;60461;-79
2024/02/24 02:48:27;;;;;;;6.20;3.50;;;;;;;;;;106949;1251;60917;-79
2024/02/24 02:50:53;;;;;;;8.90;4.30;;;;;;;;;;106453;1251;60469;-83
2024/02/24 02:53:19;;;;;;;5.50;4.60;;;;;;;;;;107037;1251;60482;-79
2024/02/24 02:55:46;;;;;;;4.70;3.10;;;;;;;;;;107042;1254;60467;-83
2024/02/24 02:58:13;;;;;;;5.70;2.90;;;;;;;;;;106877;1252;60409;-83
2024/02/24 03:00:40;;;;;;;7.30;5.30;;;;;;;;;;107083;1254;60313;-83
2024/02/24 03:03:07;;;;;;;4.90;3.30;;;;;;;;;;106928;1253;61349;-79
2024/02/24 03:05:33;;;;;;;6.10;3.50;;;;;;;;;;107044;1254;62064;-79
2024/02/24 03:08:00;;;;;;;5.90;4.60;;;;;;;;;;107072;1253;61421;-83
2024/02/24 03:10:26;;;;;;;4.90;3.30;;;;;;;;;;107050;1254;60574;-82
2024/02/24 03:12:53;;;;;;;6.50;5.40;;;;;;;;;;106940;1254;60540;-83
2024/02/24 03:15:20;;;;;;;5.80;3.80;;;;;;;;;;106912;1257;60537;-80
2024/02/24 03:17:46;;;;;;;23.00;10.10;;;;;;;;;;106926;1253;60457;-83
2024/02/24 03:20:13;;;;;;;14.80;9.30;;;;;;;;;;106944;1257;60544;-82
2024/02/24 03:22:39;;;;;;;10.60;8.50;;;;;;;;;;106992;1254;60434;-80
2024/02/24 03:25:06;;;;;;;8.20;6.70;;;;;;;;;;106974;1253;60434;-82
2024/02/24 03:27:32;;;;;;;11.50;10.20;;;;;;;;;;106992;1254;60517;-79
2024/02/24 03:29:58;;;;;;;7.70;5.30;;;;;;;;;;106865;1253;60431;-79
2024/02/24 03:32:25;;;;;;;10.50;7.00;;;;;;;;;;107080;1253;61354;-82
2024/02/24 03:34:51;;;;;;;5.90;4.20;;;;;;;;;;107028;1253;60537;-83
2024/02/24 03:37:18;;;;;;;6.70;4.90;;;;;;;;;;107048;1254;60548;-79
2024/02/24 03:39:44;;;;;;;5.70;3.60;;;;;;;;;;107080;1254;60501;-83
2024/02/24 03:42:11;;;;;;;3.80;2.50;;;;;;;;;;106905;1254;59550;-83
2024/02/24 03:44:37;;;;;;;8.10;3.80;;;;;;;;;;106939;1254;61029;-83
2024/02/24 03:47:03;;;;;;;8.10;5.00;;;;;;;;;;107477;1253;60494;-83
2024/02/24 03:49:30;;;;;;;6.70;4.60;;;;;;;;;;107024;1253;60473;-83
2024/02/24 03:51:57;;;;;;;5.40;3.70;;;;;;;;;;107106;1254;60532;-83
2024/02/24 03:54:24;;;;;;;9.80;5.80;;;;;;;;;;107029;1251;60450;-79
2024/02/24 03:56:51;;;;;;;4.50;3.00;;;;;;;;;;107051;1254;61235;-83
2024/02/24 03:59:18;;;;;;;3.70;2.40;;;;;;;;;;107140;1251;60415;-80
2024/02/24 04:01:44;;;;;;;5.70;4.50;;;;;;;;;;107138;1255;61048;-79
2024/02/24 04:04:11;;;;;;;4.60;2.20;;;;;;;;;;107070;1254;60520;-82
2024/02/24 04:06:37;;;;;;;3.10;1.90;;;;;;;;;;107100;1251;60462;-82
2024/02/24 04:09:04;;;;;;;4.50;2.00;;;;;;;;;;107110;1251;60450;-79
2024/02/24 04:11:30;;;;;;;3.40;1.90;;;;;;;;;;107121;1251;60533;-83
2024/02/24 04:13:56;;;;;;;3.10;2.10;;;;;;;;;;107138;1251;60478;-83
2024/02/24 04:16:23;;;;;;;4.10;3.10;;;;;;;;;;107065;1251;60310;-82
2024/02/24 04:18:49;;;;;;;4.20;2.40;;;;;;;;;;107143;1251;60552;-83
2024/02/24 04:21:18;;;;;;;5.90;3.40;;;;;;;;;;107183;1251;60407;-83
2024/02/24 04:23:44;;;;;;;3.00;1.80;;;;;;;;;;107146;1256;60465;-83
2024/02/24 04:26:10;;;;;;;1.50;1.20;;;;;;;;;;107139;1255;60446;-80
2024/02/24 04:28:37;;;;;;;2.80;1.90;;;;;;;;;;106944;1251;59267;-79
2024/02/24 04:31:03;;;;;;;5.40;2.50;;;;;;;;;;106901;1251;60406;-83
2024/02/24 04:33:29;;;;;;;9.10;4.40;;;;;;;;;;107128;1256;60440;-83
2024/02/24 04:35:56;;;;;;;12.80;6.00;;;;;;;;;;107114;1251;60462;-79
2024/02/24 04:38:22;;;;;;;13.40;5.90;;;;;;;;;;107152;1253;60565;-79
2024/02/24 04:40:49;;;;;;;2.40;1.50;;;;;;;;;;107109;1255;61184;-83
2024/02/24 04:43:15;;;;;;;8.10;2.80;;;;;;;;;;107081;1251;61540;-83
2024/02/24 04:45:41;;;;;;;7.10;3.60;;;;;;;;;;107085;1256;60408;-79
2024/02/24 04:48:08;;;;;;;2.50;1.50;;;;;;;;;;107157;1256;60510;-83
2024/02/24 04:50:34;;;;;;;3.20;1.60;;;;;;;;;;107128;1251;60419;-83
2024/02/24 04:53:00;;;;;;;3.30;2.00;;;;;;;;;;107127;1256;60386;-84
2024/02/24 04:55:27;;;;;;;6.40;2.00;;;;;;;;;;107082;1253;60409;-79
2024/02/24 04:57:53;;;;;;;3.80;1.70;;;;;;;;;;106963;1254;60529;-83
2024/02/24 05:00:20;;;;;;;2.70;2.10;;;;;;;;;;107105;1253;60470;-79
2024/02/24 05:02:46;;;;;;;3.30;1.50;;;;;;;;;;106935;1254;60302;-79
2024/02/24 05:05:12;;;;;;;2.80;1.80;;;;;;;;;;107092;1252;60453;-82
2024/02/24 05:07:39;;;;;;;3.40;2.30;;;;;;;;;;107108;1253;60475;-79
2024/02/24 05:10:06;;;;;;;1.60;1.40;;;;;;;;;;107079;1256;60466;-79
2024/02/24 05:12:33;;;;;;;1.90;1.00;;;;;;;;;;106937;1253;60524;-79
2024/02/24 05:14:59;;;;;;;3.90;1.70;;;;;;;;;;107096;1254;61535;-80
2024/02/24 05:17:26;;;;;;;4.70;2.70;;;;;;;;;;107121;1253;60462;-83
2024/02/24 05:19:52;;;;;;;3.80;1.60;;;;;;;;;;107102;1253;60533;-82
2024/02/24 05:22:19;;;;;;;3.00;1.70;;;;;;;;;;107116;1253;60572;-82
2024/02/24 05:24:45;;;;;;;4.20;2.60;;;;;;;;;;109532;1252;58328;-78
2024/02/24 05:27:12;;;;;;;2.60;1.60;;;;;;;;;;106448;1254;60479;-79
2024/02/24 05:29:44;;;;;;;2.90;1.90;;;;;;;;;;106956;1258;60483;-83
2024/02/24 05:32:10;;;;;;;3.60;2.20;;;;;;;;;;107174;1254;61096;-84
2024/02/24 05:34:36;;;;;;;2.50;1.70;;;;;;;;;;107234;1253;60424;-83
2024/02/24 05:37:03;;;;;;;2.00;1.70;;;;;;;;;;108438;1253;58662;-83
2024/02/24 05:39:30;;;;;;;3.50;2.60;;;;;;;;;;109397;1252;58228;-83
2024/02/24 05:41:56;;;;;;;7.90;3.80;;;;;;;;;;109486;1253;58362;-80
2024/02/24 05:44:22;;;;;;;4.20;3.10;;;;;;;;;;107888;1253;60542;-82
2024/02/24 05:46:49;;;;;;;6.90;3.60;;;;;;;;;;106956;1252;214256;-82
2024/02/24 05:49:16;;;;;;;4.40;2.50;;;;;;;;;;107008;1259;60410;-78
2024/02/24 05:51:43;;;;;;;2.40;1.70;;;;;;;;;;106335;1259;60212;-79
2024/02/24 05:54:09;;;;;;;4.20;2.20;;;;;;;;;;106546;1251;60408;-82
2024/02/24 05:56:36;;;;;;;3.70;1.70;;;;;;;;;;106957;1251;60566;-78
2024/02/24 05:59:02;;;;;;;4.90;2.20;;;;;;;;;;106341;1251;61663;-83
2024/02/24 06:01:29;;;;;;;11.20;5.10;;;;;;;;;;106565;1251;60426;-82
2024/02/24 06:03:55;;;;;;;5.20;4.60;;;;;;;;;;106338;1253;60517;-82
2024/02/24 06:06:22;;;;;;;9.20;8.40;;;;;;;;;;106544;1251;60450;-82
2024/02/24 06:08:48;;;;;;;4.00;3.60;;;;;;;;;;107083;1251;61525;-82
2024/02/24 06:11:15;;;;;;;4.80;3.30;;;;;;;;;;107078;1251;61522;-79
2024/02/24 06:13:41;;;;;;;2.90;2.10;;;;;;;;;;106461;1251;60559;-82
2024/02/24 06:16:08;;;;;;;22.30;11.20;;;;;;;;;;106504;1251;60324;-82
2024/02/24 06:18:34;;;;;;;17.30;9.70;;;;;;;;;;107149;1251;59026;-78
2024/02/24 06:21:01;;;;;;;9.00;5.70;;;;;;;;;;107093;1251;60449;-79
2024/02/24 06:23:27;;;;;;;5.40;3.70;;;;;;;;;;106561;1251;60476;-81
2024/02/24 06:25:54;;;;;;;5.50;3.80;;;;;;;;;;107090;1253;60565;-83
2024/02/24 06:28:20;;;;;;;2.90;2.50;;;;;;;;;;107125;1251;60550;-81
2024/02/24 06:30:47;;;;;;;2.10;1.50;;;;;;;;;;107146;1256;60534;-81
2024/02/24 06:33:13;;;;;;;3.20;2.20;;;;;;;;;;108987;1251;59051;-78
2024/02/24 06:35:40;;;;;;;4.90;2.60;;;;;;;;;;106508;1253;60482;-82
2024/02/24 06:38:06;;;;;;;6.20;3.00;;;;;;;;;;106544;1251;60445;-78
2024/02/24 06:40:33;;;;;;;6.10;3.70;;;;;;;;;;106628;1251;60428;-79
2024/02/24 06:42:59;;;;;;;5.60;2.70;;;;;;;;;;106509;1251;60390;-78
2024/02/24 06:45:26;;;;;;;9.90;3.60;;;;;;;;;;106539;1251;61617;-78
2024/02/24 06:47:52;;;;;;;6.30;3.30;;;;;;;;;;106522;1251;60540;-78
2024/02/24 06:50:19;;;;;;;4.70;2.20;;;;;;;;;;106512;1256;60427;-82
2024/02/24 06:52:45;;;;;;;5.90;3.00;;;;;;;;;;106550;1251;60515;-82
2024/02/24 06:55:12;;;;;;;5.80;2.80;;;;;;;;;;106875;1253;62452;-79
2024/02/24 06:57:38;;;;;;;3.80;1.90;;;;;;;;;;106344;1253;60550;-81
2024/02/24 07:00:05;;;;;;;2.90;2.10;;;;;;;;;;107075;1253;60338;-79
2024/02/24 07:02:32;;;;;;;1.70;1.20;;;;;;;;;;106537;1256;60460;-78
2024/02/24 07:04:58;;;;;;;2.50;2.20;;;;;;;;;;106540;1256;60482;-82
2024/02/24 07:07:24;;;;;;;4.90;2.10;;;;;;;;;;106958;1252;60457;-78
2024/02/24 07:09:51;;;;;;;5.00;4.50;;;;;;;;;;106577;1256;60390;-79
2024/02/24 07:12:17;;;;;;;2.00;1.80;;;;;;;;;;106572;1256;60450;-78
2024/02/24 07:14:45;;;;;;;3.90;2.20;;;;;;;;;;106497;1256;60446;-81
2024/02/24 07:17:11;;;;;;;5.00;2.10;;;;;;;;;;107094;1256;60955;-78
2024/02/24 07:19:37;;;;;;;4.30;2.20;;;;;;;;;;106511;1254;59009;-81
2024/02/24 07:22:04;;;;;;;3.70;1.80;;;;;;;;;;107348;1252;60582;-79
2024/02/24 07:24:30;;;;;;;7.40;2.50;;;;;;;;;;107765;1253;60418;-82
2024/02/24 07:26:57;;;;;;;4.70;2.30;;;;;;;;;;107804;1253;60406;-82
2024/02/24 07:29:23;;;;;;;6.80;4.10;;;;;;;;;;107453;1256;60455;-82
2024/02/24 07:31:50;;;;;;;4.10;3.10;;;;;;;;;;107139;1256;60574;-78
2024/02/24 07:34:16;;;;;;;3.70;2.20;;;;;;;;;;106371;1254;60556;-79
2024/02/24 07:36:42;;;;;;;7.10;4.20;;;;;;;;;;106501;1253;60154;-82
2024/02/24 07:39:09;;;;;;;3.90;2.70;;;;;;;;;;106975;1253;60478;-82
2024/02/24 07:41:39;;;;;;;4.00;2.40;;;;;;;;;;107069;1253;60453;-82
2024/02/24 07:44:05;;;;;;;3.80;2.40;;;;;;;;;;106948;1253;60556;-79
2024/02/24 07:46:32;;;;;;;8.30;5.10;;;;;;;;;;106458;1252;60555;-78
2024/02/24 07:48:59;;;;;;;21.00;13.80;;;;;;;;;;106342;1253;60352;-79
2024/02/24 07:51:25;;;;;;;6.70;4.20;;;;;;;;;;107093;1253;60457;-78
2024/02/24 07:53:52;;;;;;;4.90;2.90;;;;;;;;;;106544;1251;59712;-79
2024/02/24 07:56:22;;;;;;;11.60;5.00;;;;;;;;;;106361;1254;60536;-82
2024/02/24 07:58:49;;;;;;;4.20;2.30;;;;;;;;;;107111;1253;59349;-79
2024/02/24 08:01:15;;;;;;;5.80;3.80;;;;;;;;;;106522;1254;60321;-81
2024/02/24 08:03:42;;;;;;;4.60;3.00;;;;;;;;;;106606;1257;60414;-78
2024/02/24 08:06:08;;;;;;;8.00;5.50;;;;;;;;;;106595;1253;61030;-79
2024/02/24 08:08:36;;;;;;;6.50;4.70;;;;;;;;;;106348;1253;60466;-82
2024/02/24 08:11:03;;;;;;;7.70;5.10;;;;;;;;;;106473;1253;61038;-79
2024/02/24 08:13:29;;;;;;;7.20;5.50;;;;;;;;;;106532;1251;60999;-78
2024/02/24 08:15:56;;;;;;;7.20;5.00;;;;;;;;;;107179;1251;60577;-78
2024/02/24 08:18:22;;;;;;;8.40;5.40;;;;;;;;;;106572;1251;60520;-82
2024/02/24 08:20:49;;;;;;;8.10;5.40;;;;;;;;;;107083;1251;62515;-82
2024/02/24 08:23:15;;;;;;;7.00;5.30;;;;;;;;;;107153;1251;60399;-79
2024/02/24 08:25:42;;;;;;;7.10;5.30;;;;;;;;;;106543;1256;60366;-78
2024/02/24 08:28:08;;;;;;;7.40;5.90;;;;;;;;;;106372;1251;60457;-82
2024/02/24 08:30:35;;;;;;;7.20;4.60;;;;;;;;;;107095;1253;60316;-82
2024/02/24 08:33:01;;;;;;;7.40;5.00;;;;;;;;;;108954;1253;58208;-83
2024/02/24 08:35:27;;;;;;;7.80;5.40;;;;;;;;;;108022;1251;60591;-79
2024/02/24 08:37:54;;;;;;;8.00;5.60;;;;;;;;;;107124;1251;60587;-82
2024/02/24 08:40:20;;;;;;;8.30;5.50;;;;;;;;;;107125;1253;60508;-78
2024/02/24 08:42:47;;;;;;;6.10;4.20;;;;;;;;;;108563;1252;60355;-79
2024/02/24 08:45:13;;;;;;;7.80;4.90;;;;;;;;;;109536;1251;58211;-82
2024/02/24 08:47:40;;;;;;;8.80;5.40;;;;;;;;;;109517;1251;58096;-79
2024/02/24 08:50:06;;;;;;;5.30;4.30;;;;;;;;;;107539;1251;60910;-79
2024/02/24 08:52:33;;;;;;;8.40;4.50;;;;;;;;;;106546;1251;60565;-78
2024/02/24 08:54:59;;;;;;;7.90;4.90;;;;;;;;;;106589;1256;60463;-78
2024/02/24 08:57:25;;;;;;;6.50;4.60;;;;;;;;;;106526;1255;60430;-82
2024/02/24 08:59:52;;;;;;;8.00;4.60;;;;;;;;;;106561;1251;60362;-78
2024/02/24 09:02:19;;;;;;;6.70;4.80;;;;;;;;;;106548;1251;60427;-78
2024/02/24 09:04:45;;;;;;;4.60;3.40;;;;;;;;;;106525;1256;60598;-82
2024/02/24 09:07:12;;;;;;;5.50;4.10;;;;;;;;;;107109;1252;60370;-82
2024/02/24 09:09:38;;;;;;;7.60;4.20;;;;;;;;;;107120;1255;61276;-78
2024/02/24 09:12:05;;;;;;;6.20;3.80;;;;;;;;;;107681;1251;60537;-78
2024/02/24 09:14:31;;;;;;;7.40;3.40;;;;;;;;;;109484;1251;58122;-79
2024/02/24 09:16:57;;;;;;;4.90;3.00;;;;;;;;;;109188;1251;58216;-82
2024/02/24 09:19:26;;;;;;;5.20;2.90;;;;;;;;;;109520;1253;58128;-79
2024/02/24 09:21:52;;;;;;;10.60;6.00;;;;;;;;;;107122;1251;60622;-81
2024/02/24 09:24:18;;;;;;;16.70;9.60;;;;;;;;;;107155;1251;60392;-82
2024/02/24 09:26:46;;;;;;;10.10;6.10;;;;;;;;;;107245;1251;62069;-82
2024/02/24 09:29:13;;;;;;;7.40;4.50;;;;;;;;;;107086;1251;60402;-78
2024/02/24 09:31:40;;;;;;;35.50;15.60;;;;;;;;;;106468;1253;60405;-78
2024/02/24 09:34:06;;;;;;;40.20;21.40;;;;;;;;;;106550;1253;60523;-82
2024/02/24 09:36:33;;;;;;;22.40;12.20;;;;;;;;;;107110;1251;60338;-82
2024/02/24 09:39:00;;;;;;;20.40;11.60;;;;;;;;;;107068;1256;60347;-82
2024/02/24 09:41:27;;;;;;;13.90;8.70;;;;;;;;;;107171;1251;60457;-78
2024/02/24 09:43:53;;;;;;;9.20;4.90;;;;;;;;;;106538;1253;60348;-82
2024/02/24 09:46:19;;;;;;;6.80;3.90;;;;;;;;;;106763;1251;60459;-79
2024/02/24 09:48:46;;;;;;;9.30;6.20;;;;;;;;;;109588;1251;58305;-82
2024/02/24 09:51:13;;;;;;;6.00;4.00;;;;;;;;;;108166;1251;58330;-82
2024/02/24 09:53:40;;;;;;;8.90;4.30;;;;;;;;;;106987;1251;60207;-82
2024/02/24 09:56:06;;;;;;;6.90;4.10;;;;;;;;;;107239;1255;60003;-79
2024/02/24 09:58:33;;;;;;;8.60;4.10;;;;;;;;;;106588;1251;62572;-79
2024/02/24 10:01:00;;;;;;;6.10;3.90;;;;;;;;;;106547;1251;60294;-82
2024/02/24 10:03:26;;;;;;;5.10;3.90;;;;;;;;;;106509;1251;60432;-82
2024/02/24 10:05:53;;;;;;;7.90;4.60;;;;;;;;;;107174;1251;60470;-78
2024/02/24 10:08:19;;;;;;;9.90;6.50;;;;;;;;;;106609;1251;60469;-78
2024/02/24 10:10:45;;;;;;;5.00;3.80;;;;;;;;;;106539;1254;60422;-78
2024/02/24 10:13:12;;;;;;;7.40;4.70;;;;;;;;;;106502;1256;60421;-79
2024/02/24 10:15:39;;;;;;;5.70;4.20;;;;;;;;;;106516;1251;60565;-81
2024/02/24 10:18:05;;;;;;;6.80;4.00;;;;;;;;;;109046;1251;58334;-82
2024/02/24 10:20:32;;;;;;;5.50;3.90;;;;;;;;;;109561;1251;59785;-82
2024/02/24 10:22:58;;;;;;;6.10;4.30;;;;;;;;;;109537;1251;59110;-80
2024/02/24 10:25:25;;;;;;;8.10;4.60;;;;;;;;;;109478;1251;58836;-82
2024/02/24 10:27:51;;;;;;;7.10;3.90;;;;;;;;;;109498;1251;59008;-83
2024/02/24 10:30:18;;;;;;;6.80;4.10;;;;;;;;;;109541;1253;59012;-83
2024/02/24 10:32:44;;;;;;;4.00;3.40;;;;;;;;;;109493;1253;58913;-82
2024/02/24 10:35:11;;;;;;;6.20;3.70;;;;;;;;;;109553;1251;59255;-79
2024/02/24 10:37:37;;;;;;;6.40;4.70;;;;;;;;;;108454;1253;62201;-81
2024/02/24 10:40:04;;;;;;;5.40;3.70;;;;;;;;;;107121;1251;61091;-79
2024/02/24 10:42:31;;;;;;;8.90;5.40;;;;;;;;;;106470;1256;61141;-78
2024/02/24 10:44:57;;;;;;;6.70;4.30;;;;;;;;;;106507;1255;61348;-82
2024/02/24 10:47:24;;;;;;;7.40;5.10;;;;;;;;;;107175;1252;61299;-79
2024/02/24 10:49:50;;;;;;;8.50;4.50;;;;;;;;;;107054;1256;61075;-82
2024/02/24 10:52:17;;;;;;;8.10;5.40;;;;;;;;;;107140;1254;59450;-82
2024/02/24 10:54:45;;;;;;;9.90;6.50;;;;;;;;;;107203;1255;59678;-82
2024/02/24 10:57:11;;;;;;;7.40;4.50;;;;;;;;;;107246;1252;61382;-79
2024/02/24 10:59:38;;;;;;;7.30;4.90;;;;;;;;;;106395;1253;61345;-82
2024/02/24 11:02:08;;;;;;;8.10;5.30;;;;;;;;;;106964;1252;61196;-81
2024/02/24 11:04:35;;;;;;;8.50;5.60;;;;;;;;;;107197;1251;62463;-82
2024/02/24 11:07:01;;;;;;;8.00;4.60;;;;;;;;;;107000;1257;61138;-82
2024/02/24 11:09:29;;;;;;;8.80;4.70;;;;;;;;;;107110;1251;60737;-78
2024/02/24 11:12:03;;;;;;;7.30;4.50;;;;;;;;;;106310;1251;61240;-82
2024/02/24 11:14:32;;;;;;;8.80;5.20;;;;;;;;;;106547;1252;62273;-82
2024/02/24 11:16:59;;;;;;;39.30;19.40;;;;;;;;;;107074;1251;61860;-82
2024/02/24 11:19:44;;;;;;;15.50;7.80;;;;;;;;;;107253;1252;61309;-79
2024/02/24 11:22:30;;;;;;;7.70;4.80;;;;;;;;;;107102;1251;61259;-82
2024/02/24 11:25:00;;;;;;;9.20;4.30;;;;;;;;;;107208;1253;61282;-79
2024/02/24 11:27:27;;;;;;;5.40;3.70;;;;;;;;;;108972;1253;59272;-80
2024/02/24 11:29:53;;;;;;;5.50;4.40;;;;;;;;;;109578;1251;61893;-83
2024/02/24 11:32:20;;;;;;;6.40;4.10;;;;;;;;;;109095;1252;61245;-82
2024/02/24 11:34:46;;;;;;;8.90;5.60;;;;;;;;;;108652;1256;60662;-82
2024/02/24 11:37:22;;;;;;;16.10;8.10;;;;;;;;;;107144;1254;61299;-83
2024/02/24 11:39:48;;;;;;;11.80;7.40;;;;;;;;;;107192;1253;61205;-80
2024/02/24 11:42:15;;;;;;;19.70;13.10;;;;;;;;;;107000;1252;61375;-84
2024/02/24 11:44:45;;;;;;;8.90;5.90;;;;;;;;;;107151;1254;61327;-80
2024/02/24 11:47:15;;;;;;;8.00;4.00;;;;;;;;;;106869;1254;61225;-84
2024/02/24 11:49:45;;;;;;;8.40;4.90;;;;;;;;;;107083;1254;61252;-80
2024/02/24 11:52:11;;;;;;;24.70;12.80;;;;;;;;;;106911;1254;61291;-83
2024/02/24 11:54:39;;;;;;;9.50;5.30;;;;;;;;;;106869;1254;61199;-83
2024/02/24 11:57:06;;;;;;;7.00;4.60;;;;;;;;;;106959;1253;61227;-80
2024/02/24 11:59:32;;;;;;;8.60;4.50;;;;;;;;;;106847;1252;61168;-82
2024/02/24 12:01:59;;;;;;;7.50;4.30;;;;;;;;;;106932;1256;61230;-80
2024/02/24 12:04:26;;;;;;;6.80;4.60;;;;;;;;;;106869;1255;61227;-80
2024/02/24 12:06:53;;;;;;;9.60;5.10;;;;;;;;;;106852;1254;62783;-83
2024/02/24 12:09:19;;;;;;;8.50;4.70;;;;;;;;;;106794;1251;61253;-80
2024/02/24 12:11:46;;;;;;;7.50;4.10;;;;;;;;;;106873;1252;61004;-80
2024/02/24 12:14:12;;;;;;;11.20;6.00;;;;;;;;;;106928;1253;61427;-82
2024/02/24 12:16:40;;;;;;;18.80;9.50;;;;;;;;;;107015;1254;61196;-80
2024/02/24 12:19:06;;;;;;;10.30;5.80;;;;;;;;;;106927;1250;61936;-80
2024/02/24 12:21:33;;;;;;;11.20;5.70;;;;;;;;;;107006;1251;61205;-80
2024/02/24 12:23:59;;;;;;;10.60;7.60;;;;;;;;;;106952;1251;61108;-80
2024/02/24 12:26:26;;;;;;;17.80;11.00;;;;;;;;;;106966;1254;61247;-80
2024/02/24 12:28:53;;;;;;;19.70;12.40;;;;;;;;;;107049;1251;61349;-80
2024/02/24 12:31:19;;;;;;;19.20;9.60;;;;;;;;;;106909;1251;61250;-83
2024/02/24 12:33:46;;;;;;;12.20;9.00;;;;;;;;;;106934;1250;61272;-80
2024/02/24 12:36:13;;;;;;;11.80;8.40;;;;;;;;;;106780;1251;61273;-80
2024/02/24 12:38:39;;;;;;;13.50;8.70;;;;;;;;;;106970;1250;61260;-83
2024/02/24 12:41:07;;;;;;;9.90;6.00;;;;;;;;;;106990;1254;61269;-80
2024/02/24 12:43:35;;;;;;;8.80;5.30;;;;;;;;;;106981;1251;61904;-80
2024/02/24 12:46:05;;;;;;;10.30;6.50;;;;;;;;;;106666;1251;60280;-80
2024/02/24 12:48:32;;;;;;;8.90;5.70;;;;;;;;;;106733;1259;61320;-80
2024/02/24 12:50:58;;;;;;;10.80;5.90;;;;;;;;;;106919;1251;61104;-80
2024/02/24 12:53:26;;;;;;;10.80;6.00;;;;;;;;;;106789;1258;61202;-83
2024/02/24 12:55:53;;;;;;;8.50;5.10;;;;;;;;;;106826;1256;61208;-80
2024/02/24 12:58:20;;;;;;;10.00;5.70;;;;;;;;;;106978;1250;61339;-83
2024/02/24 13:00:47;;;;;;;15.10;6.10;;;;;;;;;;106964;1251;61269;-81
2024/02/24 13:03:13;;;;;;;9.10;5.80;;;;;;;;;;106884;1251;61054;-80
2024/02/24 13:05:40;;;;;;;10.70;5.60;;;;;;;;;;106883;1256;61253;-81
2024/02/24 13:08:06;;;;;;;9.20;5.90;;;;;;;;;;106939;1251;61365;-83
2024/02/24 13:10:33;;;;;;;7.70;4.60;;;;;;;;;;106928;1255;61215;-83
2024/02/24 13:12:59;;;;;;;6.80;4.40;;;;;;;;;;106874;1250;61266;-81
2024/02/24 13:15:27;;;;;;;10.20;4.30;;;;;;;;;;106874;1251;61400;-83
2024/02/24 13:17:53;;;;;;;8.50;4.10;;;;;;;;;;106917;1251;61243;-84
2024/02/24 13:20:20;;;;;;;9.80;5.30;;;;;;;;;;106953;1254;60928;-80
2024/02/24 13:22:46;;;;;;;10.60;5.20;;;;;;;;;;106867;1254;62249;-84
2024/02/24 13:25:12;;;;;;;7.50;4.30;;;;;;;;;;106795;1254;61215;-80
2024/02/24 13:27:39;;;;;;;12.70;4.80;;;;;;;;;;106728;1251;61254;-80
2024/02/24 13:30:05;;;;;;;11.00;5.70;;;;;;;;;;106937;1252;61211;-79
2024/02/24 13:32:32;;;;;;;8.40;4.50;;;;;;;;;;106870;1259;61230;-79
2024/02/24 13:34:58;;;;;;;8.10;4.70;;;;;;;;;;106784;1254;61317;-83
2024/02/24 13:37:26;;;;;;;9.50;6.30;;;;;;;;;;106813;1256;61257;-83
2024/02/24 13:39:53;;;;;;;42.80;20.30;;;;;;;;;;106586;1253;61313;-82
2024/02/24 13:42:19;;;;;;;20.70;9.60;;;;;;;;;;106865;1252;61235;-82
2024/02/24 13:44:46;;;;;;;24.30;12.10;;;;;;;;;;106811;1252;62239;-79
2024/02/24 13:47:14;;;;;;;58.60;27.00;;;;;;;;;;106872;1256;61259;-80
2024/02/24 13:49:41;;;;;;;21.50;11.90;;;;;;;;;;106794;1254;62264;-83
2024/02/24 13:52:07;;;;;;;49.20;25.20;;;;;;;;;;106864;1254;61262;-82
2024/02/24 13:54:34;;;;;;;14.20;8.60;;;;;;;;;;106937;1254;61375;-80
2024/02/24 13:57:01;;;;;;;13.10;6.90;;;;;;;;;;106832;1254;61198;-83
2024/02/24 13:59:27;;;;;;;12.80;6.80;;;;;;;;;;106925;1253;61260;-82
2024/02/24 14:01:54;;;;;;;11.50;6.50;;;;;;;;;;106848;1254;61378;-80
2024/02/24 14:04:20;;;;;;;28.60;14.70;;;;;;;;;;106713;1258;61339;-83
2024/02/24 14:06:46;;;;;;;17.70;10.30;;;;;;;;;;106865;1252;61282;-82
2024/02/24 14:09:13;;;;;;;14.10;8.10;;;;;;;;;;106867;1254;61329;-83
2024/02/24 14:11:39;;;;;;;20.90;11.10;;;;;;;;;;106937;1251;61752;-82
2024/02/24 14:14:05;;;;;;;12.90;8.40;;;;;;;;;;106878;1256;61337;-80
2024/02/24 14:16:32;;;;;;;37.10;14.80;;;;;;;;;;106909;1251;61336;-79
2024/02/24 14:18:58;;;;;;;11.50;7.00;;;;;;;;;;106932;1251;61341;-79
2024/02/24 14:21:25;;;;;;;10.70;6.80;;;;;;;;;;106939;1252;61225;-82
2024/02/24 14:23:51;;;;;;;20.60;9.90;;;;;;;;;;106941;1255;61247;-80